createdAt,value
2023-09-30T00:02:22.524Z,83450.53
2023-09-30T00:04:56.663Z,83447.31
2023-09-30T00:07:31.231Z,83453.28
2023-09-30T00:10:05.877Z,83441.19
2023-09-30T00:12:39.946Z,83450.41
2023-09-30T00:15:17.356Z,83448.16
2023-09-30T00:17:56.064Z,83444.38
2023-09-30T00:20:34.063Z,83443.19
2023-09-30T00:23:08.864Z,83442.50
2023-09-30T00:26:04.048Z,83451.72
2023-09-30T00:28:37.790Z,83449.66
2023-09-30T00:31:17.700Z,83447.09
2023-09-30T00:33:51.216Z,83451.03
2023-09-30T00:36:28.578Z,83453.56
2023-09-30T00:39:02.526Z,83452.84
2023-09-30T00:41:36.744Z,83451.63
2023-09-30T00:44:10.658Z,83451.03
2023-09-30T00:46:48.516Z,83442.97
2023-09-30T00:49:23.688Z,83448.28
2023-09-30T00:51:58.701Z,83447.56
2023-09-30T00:54:33.995Z,83451.28
2023-09-30T00:57:10.140Z,83455.16
2023-09-30T00:59:44.547Z,83458.56
2023-09-30T01:02:21.720Z,83452.06
2023-09-30T01:04:55.249Z,83455.41
2023-09-30T01:07:28.574Z,83456.34
2023-09-30T01:10:02.201Z,83461.63
2023-09-30T01:12:37.086Z,83466.22
2023-09-30T01:15:12.491Z,83458.31
2023-09-30T01:17:50.337Z,83463.38
2023-09-30T01:20:26.527Z,83466.16
2023-09-30T01:23:04.521Z,83464.78
2023-09-30T01:25:40.872Z,83471.16
2023-09-30T01:28:19.335Z,83471.63
2023-09-30T01:30:56.747Z,83471.31
2023-09-30T01:33:31.645Z,83466.03
2023-09-30T01:36:07.574Z,83460.75
2023-09-30T01:38:45.672Z,83471.31
2023-09-30T01:41:21.821Z,83476.72
2023-09-30T01:43:59.121Z,83472.59
2023-09-30T01:46:36.728Z,83461.25
2023-09-30T01:49:10.617Z,83463.38
2023-09-30T01:51:44.526Z,83460.75
2023-09-30T01:54:21.571Z,83457.63
2023-09-30T01:56:56.700Z,83459.50
2023-09-30T01:59:30.715Z,83460.06
2023-09-30T02:02:05.644Z,83464.09
2023-09-30T02:04:39.280Z,83458.22
2023-09-30T02:07:13.297Z,83454.91
2023-09-30T02:10:02.988Z,83465.75
2023-09-30T02:12:43.475Z,83458.72
2023-09-30T02:15:17.974Z,83458.25
2023-09-30T02:17:57.819Z,83457.88
2023-09-30T02:20:33.402Z,83456.25
2023-09-30T02:23:09.455Z,83458.13
2023-09-30T02:25:46.082Z,83455.00
2023-09-30T02:28:34.441Z,83449.22
2023-09-30T02:31:11.641Z,83444.44
2023-09-30T02:33:45.348Z,83457.78
2023-09-30T02:36:19.687Z,83448.06
2023-09-30T02:38:53.226Z,83447.84
2023-09-30T02:41:29.642Z,83454.03
2023-09-30T02:44:20.245Z,83442.66
2023-09-30T02:47:02.898Z,83441.41
2023-09-30T02:49:39.655Z,83442.66
2023-09-30T02:52:15.035Z,83443.94
2023-09-30T02:54:49.148Z,83434.84
2023-09-30T02:57:30.613Z,83439.47
2023-09-30T03:00:15.655Z,83434.84
2023-09-30T03:02:52.898Z,83431.63
2023-09-30T03:05:27.256Z,83423.81
2023-09-30T03:08:02.914Z,83421.84
2023-09-30T03:10:36.218Z,83417.13
2023-09-30T03:13:13.234Z,83415.28
2023-09-30T03:15:46.581Z,83409.31
2023-09-30T03:18:20.306Z,83400.81
2023-09-30T03:20:59.100Z,83406.69
2023-09-30T03:23:36.154Z,83400.72
2023-09-30T03:26:12.581Z,83394.06
2023-09-30T03:28:49.478Z,83394.75
2023-09-30T03:31:27.787Z,83390.16
2023-09-30T03:34:03.621Z,83390.81
2023-09-30T03:36:39.035Z,83390.81
2023-09-30T03:39:21.668Z,83384.84
2023-09-30T03:42:21.476Z,83381.06
2023-09-30T03:45:02.146Z,83380.25
2023-09-30T03:47:43.325Z,83370.97
2023-09-30T03:50:17.465Z,83370.97
2023-09-30T03:52:59.086Z,83369.09
2023-09-30T03:55:36.768Z,83365.19
2023-09-30T03:58:12.060Z,83361.28
2023-09-30T04:01:01.000Z,83356.00
2023-09-30T04:03:37.647Z,83348.16
2023-09-30T04:06:13.977Z,83344.16
2023-09-30T04:08:50.111Z,83340.34
2023-09-30T04:11:24.304Z,83339.47
2023-09-30T04:13:57.893Z,83336.22
2023-09-30T04:16:35.407Z,83331.63
2023-09-30T04:19:11.026Z,83334.56
2023-09-30T04:21:48.953Z,83332.50
2023-09-30T04:24:23.705Z,83326.13
2023-09-30T04:27:12.058Z,83316.75
2023-09-30T04:29:46.356Z,83315.97
2023-09-30T04:32:29.757Z,83307.44
2023-09-30T04:35:04.152Z,83296.19
2023-09-30T04:37:39.168Z,83310.66
2023-09-30T04:40:17.984Z,83297.47
2023-09-30T04:43:08.411Z,83292.78
2023-09-30T04:45:42.562Z,83304.72
2023-09-30T04:48:19.723Z,83301.38
2023-09-30T04:50:54.196Z,83287.50
2023-09-30T04:53:34.581Z,83283.56
2023-09-30T04:56:09.906Z,83282.19
2023-09-30T04:58:43.885Z,83288.75
2023-09-30T05:01:17.963Z,83280.13
2023-09-30T05:03:55.549Z,83283.47
2023-09-30T05:06:30.049Z,83286.81
2023-09-30T05:09:03.986Z,83286.81
2023-09-30T05:12:02.274Z,83281.41
2023-09-30T05:14:36.086Z,83283.38
2023-09-30T05:17:11.648Z,83277.41
2023-09-30T05:19:48.332Z,83283.66
2023-09-30T05:22:49.655Z,83274.19
2023-09-30T05:25:29.254Z,83270.94
2023-09-30T05:28:11.049Z,83269.34
2023-09-30T05:30:57.774Z,83265.91
2023-09-30T05:33:31.528Z,83262.31
2023-09-30T05:36:09.001Z,83256.59
2023-09-30T05:38:43.203Z,83246.41
2023-09-30T05:41:19.527Z,83243.56
2023-09-30T05:44:01.588Z,83235.75
2023-09-30T05:46:38.634Z,83228.69
2023-09-30T05:49:14.205Z,83226.94
2023-09-30T05:52:03.064Z,83230.69
2023-09-30T05:54:47.805Z,83232.94
2023-09-30T05:57:21.182Z,83230.13
2023-09-30T06:02:44.551Z,83231.38
2023-09-30T06:05:21.546Z,83222.09
2023-09-30T06:07:58.879Z,83215.50
2023-09-30T06:10:32.743Z,83227.47
2023-09-30T06:13:06.738Z,83230.78
2023-09-30T06:15:40.409Z,83223.56
2023-09-30T06:18:16.014Z,83209.66
2023-09-30T06:21:00.940Z,83215.63
2023-09-30T06:23:44.140Z,83215.69
2023-09-30T06:29:35.627Z,83205.13
2023-09-30T06:32:29.856Z,83200.63
2023-09-30T06:35:13.685Z,83198.66
2023-09-30T06:37:52.969Z,83196.03
2023-09-30T06:40:30.129Z,83177.53
2023-09-30T06:43:07.668Z,83166.38
2023-09-30T06:45:44.444Z,83175.06
2023-09-30T06:48:25.687Z,83173.69
2023-09-30T06:51:02.368Z,83176.34
2023-09-30T06:53:37.527Z,83167.13
2023-09-30T06:56:23.015Z,83170.47
2023-09-30T06:59:02.304Z,83154.03
2023-09-30T07:04:24.781Z,83164.00
2023-09-30T07:07:20.562Z,83162.13
2023-09-30T07:10:06.821Z,83154.19
2023-09-30T07:12:44.103Z,83146.94
2023-09-30T07:15:18.455Z,83146.94
2023-09-30T07:17:53.844Z,83141.00
2023-09-30T07:20:27.550Z,83142.34
2023-09-30T07:23:15.622Z,83135.09
2023-09-30T07:25:55.961Z,83140.47
2023-09-30T07:28:32.924Z,83136.44
2023-09-30T07:31:06.839Z,83131.94
2023-09-30T07:33:43.500Z,83130.59
2023-09-30T07:36:17.156Z,83124.03
2023-09-30T07:38:56.304Z,83124.03
2023-09-30T07:41:30.063Z,83137.31
2023-09-30T07:44:06.502Z,83126.66
2023-09-30T07:46:40.535Z,83116.28
2023-09-30T07:49:23.745Z,83118.31
2023-09-30T07:52:16.979Z,83118.31
2023-09-30T07:54:53.161Z,83116.34
2023-09-30T08:00:29.104Z,83104.63
2023-09-30T08:03:07.082Z,83102.56
2023-09-30T08:05:44.977Z,83109.09
2023-09-30T08:08:18.619Z,83111.88
2023-09-30T08:11:01.280Z,83110.50
2023-09-30T08:13:40.357Z,83121.09
2023-09-30T08:16:22.320Z,83107.94
2023-09-30T08:19:03.183Z,83105.28
2023-09-30T08:21:37.967Z,83105.97
2023-09-30T08:24:12.289Z,83109.97
2023-09-30T08:26:51.934Z,83114.59
2023-09-30T08:29:25.564Z,83109.28
2023-09-30T08:32:14.350Z,83102.16
2023-09-30T08:34:50.890Z,83106.16
2023-09-30T08:37:25.384Z,83115.53
2023-09-30T08:39:58.651Z,83097.03
2023-09-30T08:42:36.009Z,83104.38
2023-09-30T08:45:10.836Z,83100.47
2023-09-30T08:47:54.767Z,83109.06
2023-09-30T08:50:32.083Z,83111.78
2023-09-30T08:53:11.955Z,83105.22
2023-09-30T08:55:47.301Z,83102.56
2023-09-30T08:58:44.510Z,83101.31
2023-09-30T09:01:38.444Z,83094.75
2023-09-30T09:04:13.675Z,83084.06
2023-09-30T09:06:52.361Z,83086.13
2023-09-30T09:09:26.481Z,83092.78
2023-09-30T09:15:02.060Z,83084.16
2023-09-30T09:17:49.711Z,83090.13
2023-09-30T09:20:37.511Z,83088.84
2023-09-30T09:26:10.671Z,83096.78
2023-09-30T09:31:32.401Z,83104.03
2023-09-30T09:34:05.936Z,83099.94
2023-09-30T09:36:49.238Z,83101.22
2023-09-30T09:39:36.931Z,83108.41
2023-09-30T09:42:10.465Z,83102.41
2023-09-30T09:44:47.047Z,83097.81
2023-09-30T09:50:09.715Z,83097.09
2023-09-30T09:52:44.916Z,83098.41
2023-09-30T09:55:22.326Z,83107.69
2023-09-30T09:57:57.533Z,83096.44
2023-09-30T10:00:46.437Z,83097.09
2023-09-30T10:03:21.406Z,83093.09
2023-09-30T10:05:56.014Z,83104.38
2023-09-30T10:08:35.055Z,83104.97
2023-09-30T10:11:27.750Z,83104.38
2023-09-30T10:14:03.587Z,83093.09
2023-09-30T10:16:59.898Z,83097.03
2023-09-30T10:19:56.809Z,83104.28
2023-09-30T10:22:33.366Z,83101.66
2023-09-30T10:25:10.628Z,83118.88
2023-09-30T10:27:58.119Z,83116.91
2023-09-30T10:30:45.347Z,83120.84
2023-09-30T10:33:19.908Z,83112.91
2023-09-30T10:35:54.064Z,83114.88
2023-09-30T10:38:42.933Z,83114.25
2023-09-30T10:41:16.960Z,83112.91
2023-09-30T10:43:54.420Z,83116.91
2023-09-30T10:46:46.307Z,83116.91
2023-09-30T10:49:27.009Z,83126.13
2023-09-30T10:54:51.020Z,83129.44
2023-09-30T10:57:39.862Z,83127.47
2023-09-30T11:00:23.157Z,83135.41
2023-09-30T11:02:59.231Z,83134.06
2023-09-30T11:06:07.138Z,83138.66
2023-09-30T11:08:36.707Z,83128.66
2023-09-30T11:11:10.387Z,83138.00
2023-09-30T11:13:47.346Z,83130.06
2023-09-30T11:16:29.104Z,83134.75
2023-09-30T11:19:41.701Z,83136.69
2023-09-30T11:22:19.824Z,83136.03
2023-09-30T11:24:53.543Z,83140.03
2023-09-30T11:27:30.784Z,83140.03
2023-09-30T11:30:05.311Z,83142.66
2023-09-30T11:32:42.328Z,83148.66
2023-09-30T11:35:29.505Z,83161.19
2023-09-30T11:38:02.732Z,83156.56
2023-09-30T11:40:37.030Z,83161.19
2023-09-30T11:43:17.309Z,83171.09
2023-09-30T11:45:51.196Z,83169.13
2023-09-30T11:51:25.381Z,83169.13
2023-09-30T11:54:00.833Z,83169.13
2023-09-30T11:56:34.698Z,83179.69
2023-09-30T11:59:22.785Z,83188.31
2023-09-30T12:02:11.402Z,83188.31
2023-09-30T12:04:51.720Z,83182.34
2023-09-30T12:07:25.349Z,83179.69
2023-09-30T12:10:22.573Z,83179.69
2023-09-30T12:12:56.631Z,83184.31
2023-09-30T12:15:33.157Z,83197.53
2023-09-30T12:18:08.154Z,83208.09
2023-09-30T12:20:47.753Z,83206.16
2023-09-30T12:23:57.450Z,83215.44
2023-09-30T12:26:36.424Z,83212.13
2023-09-30T12:29:12.064Z,83217.50
2023-09-30T12:31:53.114Z,83214.75
2023-09-30T12:34:49.987Z,83218.09
2023-09-30T12:37:33.386Z,83215.44
2023-09-30T12:40:10.433Z,83226.03
2023-09-30T12:42:45.784Z,83229.34
2023-09-30T12:45:52.187Z,83226.03
2023-09-30T12:48:26.968Z,83241.88
2023-09-30T12:51:01.064Z,83233.28
2023-09-30T12:53:38.084Z,83226.03
2023-09-30T12:59:04.481Z,83244.53
2023-09-30T13:01:40.640Z,83253.16
2023-09-30T13:04:14.730Z,83255.78
2023-09-30T13:06:48.047Z,83258.44
2023-09-30T13:09:28.426Z,83260.41
2023-09-30T13:12:02.960Z,83257.75
2023-09-30T13:14:42.183Z,83261.78
2023-09-30T13:17:16.924Z,83261.78
2023-09-30T13:20:03.392Z,83275.00
2023-09-30T13:22:47.870Z,83275.69
2023-09-30T13:25:25.244Z,83281.66
2023-09-30T13:28:19.806Z,83280.97
2023-09-30T13:31:09.216Z,83281.66
2023-09-30T13:33:42.463Z,83279.69
2023-09-30T13:36:34.578Z,83279.03
2023-09-30T13:39:08.720Z,83280.97
2023-09-30T13:41:46.271Z,83292.94
2023-09-30T13:44:25.678Z,83296.84
2023-09-30T13:47:00.471Z,83298.22
2023-09-30T13:49:34.309Z,83292.94
2023-09-30T13:52:08.666Z,83296.84
2023-09-30T13:54:53.642Z,83306.16
2023-09-30T13:57:34.378Z,83305.47
2023-09-30T14:00:11.722Z,83305.47
2023-09-30T14:02:46.018Z,83314.09
2023-09-30T14:05:20.719Z,83315.44
2023-09-30T14:07:59.453Z,83319.38
2023-09-30T14:13:26.813Z,83339.25
2023-09-30T14:16:17.619Z,83340.63
2023-09-30T14:19:08.671Z,83348.47
2023-09-30T14:21:43.661Z,83349.84
2023-09-30T14:24:17.597Z,83349.84
2023-09-30T14:27:07.024Z,83347.19
2023-09-30T14:29:44.536Z,83345.91
2023-09-30T14:32:33.422Z,83343.97
2023-09-30T14:35:26.987Z,83353.84
2023-09-30T14:38:17.599Z,83356.47
2023-09-30T14:40:54.049Z,83370.41
2023-09-30T14:43:28.920Z,83367.78
2023-09-30T14:46:07.367Z,83359.13
2023-09-30T14:48:54.711Z,83364.53
2023-09-30T14:51:38.358Z,83366.50
2023-09-30T14:54:17.252Z,83355.91
2023-09-30T14:56:51.506Z,83351.97
2023-09-30T14:59:27.415Z,83359.25
2023-09-30T15:02:07.862Z,83356.59
2023-09-30T15:07:33.844Z,83343.38
2023-09-30T15:10:08.145Z,83338.06
2023-09-30T15:12:42.332Z,83347.38
2023-09-30T15:15:16.910Z,83351.31
2023-09-30T15:20:54.361Z,83358.66
2023-09-30T15:23:40.344Z,83360.59
2023-09-30T15:26:15.942Z,83367.25
2023-09-30T15:28:51.028Z,83368.53
2023-09-30T15:31:37.613Z,83368.53
2023-09-30T15:34:14.643Z,83363.25
2023-09-30T15:37:13.282Z,83361.88
2023-09-30T15:39:53.866Z,83357.28
2023-09-30T15:42:30.720Z,83363.25
2023-09-30T15:45:06.211Z,83352.66
2023-09-30T15:47:40.262Z,83357.28
2023-09-30T15:50:21.574Z,83355.31
2023-09-30T15:53:13.752Z,83354.75
2023-09-30T15:55:51.322Z,83365.31
2023-09-30T15:58:28.461Z,83371.97
2023-09-30T16:01:02.555Z,83369.22
2023-09-30T16:03:47.300Z,83365.31
2023-09-30T16:06:27.509Z,83358.06
2023-09-30T16:09:00.686Z,83363.25
2023-09-30T16:11:47.711Z,83364.63
2023-09-30T16:14:26.349Z,83360.03
2023-09-30T16:17:02.940Z,83366.69
2023-09-30T16:19:38.772Z,83359.31
2023-09-30T16:22:27.655Z,83354.03
2023-09-30T16:25:04.742Z,83340.81
2023-09-30T16:27:38.963Z,83338.88
2023-09-30T16:30:14.756Z,83338.88
2023-09-30T16:32:52.602Z,83342.19
2023-09-30T16:35:37.422Z,83334.25
2023-09-30T16:38:15.054Z,83334.94
2023-09-30T16:40:55.435Z,83329.66
2023-09-30T16:43:29.241Z,83326.31
2023-09-30T16:46:16.791Z,83323.69
2023-09-30T16:48:53.333Z,83327.00
2023-09-30T16:51:30.489Z,83323.69
2023-09-30T16:54:07.994Z,83319.75
2023-09-30T16:56:41.291Z,83313.09
2023-09-30T16:59:38.785Z,83314.47
2023-09-30T17:02:14.179Z,83321.72
2023-09-30T17:04:49.063Z,83323.69
2023-09-30T17:07:23.543Z,83327.69
2023-09-30T17:10:00.026Z,83332.28
2023-09-30T17:12:35.428Z,83330.94
2023-09-30T17:15:10.475Z,83328.97
2023-09-30T17:17:45.236Z,83317.09
2023-09-30T17:20:22.726Z,83313.09
2023-09-30T17:23:05.001Z,83313.09
2023-09-30T17:25:52.950Z,83307.81
2023-09-30T17:28:29.918Z,83313.09
2023-09-30T17:31:08.166Z,83312.41
2023-09-30T17:33:44.960Z,83313.78
2023-09-30T17:36:20.843Z,83305.16
2023-09-30T17:38:57.623Z,83299.75
2023-09-30T17:41:41.649Z,83309.06
2023-09-30T17:44:16.729Z,83307.13
2023-09-30T17:46:51.232Z,83298.47
2023-09-30T17:49:32.438Z,83287.22
2023-09-30T17:52:06.017Z,83284.69
2023-09-30T17:54:43.025Z,83284.56
2023-09-30T17:57:31.716Z,83287.22
2023-09-30T18:00:06.481Z,83301.84
2023-09-30T18:02:40.926Z,83307.69
2023-09-30T18:05:14.459Z,83295.16
2023-09-30T18:07:51.085Z,83285.97
2023-09-30T18:10:25.593Z,83289.19
2023-09-30T18:13:04.343Z,83284.56
2023-09-30T18:15:37.702Z,83298.47
2023-09-30T18:18:13.233Z,83296.56
2023-09-30T18:20:46.669Z,83289.19
2023-09-30T18:23:23.094Z,83293.78
2023-09-30T18:26:08.583Z,83290.47
2023-09-30T18:28:46.093Z,83300.38
2023-09-30T18:31:25.053Z,83297.72
2023-09-30T18:33:58.608Z,83297.03
2023-09-30T18:36:36.919Z,83291.63
2023-09-30T18:39:24.977Z,83297.03
2023-09-30T18:42:00.008Z,83291.06
2023-09-30T18:44:43.926Z,83284.50
2023-09-30T18:47:20.705Z,83278.53
2023-09-30T18:49:54.689Z,83277.13
2023-09-30T18:52:28.418Z,83287.63
2023-09-30T18:55:01.900Z,83277.06
2023-09-30T18:57:36.155Z,83263.84
2023-09-30T19:00:13.907Z,83269.19
2023-09-30T19:02:47.163Z,83264.63
2023-09-30T19:05:20.720Z,83262.56
2023-09-30T19:07:55.341Z,83257.94
2023-09-30T19:10:29.922Z,83258.53
2023-09-30T19:13:03.448Z,83258.53
2023-09-30T19:15:40.960Z,83258.53
2023-09-30T19:21:04.366Z,83254.53
2023-09-30T19:23:38.159Z,83251.88
2023-09-30T19:26:16.699Z,83243.97
2023-09-30T19:28:52.431Z,83249.94
2023-09-30T19:31:31.660Z,83249.25
2023-09-30T19:34:07.723Z,83249.25
2023-09-30T19:36:41.909Z,83253.16
2023-09-30T19:39:17.507Z,83245.22
2023-09-30T19:41:51.650Z,83250.50
2023-09-30T19:44:25.139Z,83253.84
2023-09-30T19:47:16.105Z,83249.13
2023-09-30T19:49:50.028Z,83240.63
2023-09-30T19:52:23.224Z,83228.59
2023-09-30T19:54:56.714Z,83227.97
2023-09-30T19:57:33.641Z,83220.66
2023-09-30T20:00:08.651Z,83218.69
2023-09-30T20:02:46.318Z,83205.47
2023-09-30T20:05:20.924Z,83212.03
2023-09-30T20:07:54.537Z,83207.31
2023-09-30T20:10:28.683Z,83206.06
2023-09-30T20:13:02.539Z,83214.56
2023-09-30T20:15:37.150Z,83213.91
2023-09-30T20:18:14.370Z,83217.22
2023-09-30T20:20:47.976Z,83223.19
2023-09-30T20:23:22.709Z,83241.13
2023-09-30T20:25:56.153Z,83239.75
2023-09-30T20:28:30.022Z,83237.81
2023-09-30T20:31:04.852Z,83245.03
2023-09-30T20:33:41.547Z,83242.38
2023-09-30T20:36:15.365Z,83239.75
2023-09-30T20:38:50.031Z,83237.69
2023-09-30T20:41:31.129Z,83238.97
2023-09-30T20:44:07.114Z,83238.38
2023-09-30T20:46:41.455Z,83239.66
2023-09-30T20:49:18.090Z,83250.25
2023-09-30T20:51:51.966Z,83244.94
2023-09-30T20:54:25.659Z,83238.28
2023-09-30T20:56:59.496Z,83244.94
2023-09-30T20:59:32.791Z,83244.84
2023-09-30T21:02:06.480Z,83252.19
2023-09-30T21:04:43.339Z,83247.50
2023-09-30T21:07:21.371Z,83251.41
2023-09-30T21:09:55.574Z,83252.00
2023-09-30T21:12:29.375Z,83255.34
2023-09-30T21:15:02.580Z,83260.63
2023-09-30T21:17:37.742Z,83255.34
2023-09-30T21:20:18.030Z,83256.63
2023-09-30T21:22:51.756Z,83248.00
2023-09-30T21:25:25.031Z,83255.81
2023-09-30T21:27:58.480Z,83266.38
2023-09-30T21:30:32.011Z,83272.34
2023-09-30T21:33:05.630Z,83269.03
2023-09-30T21:35:42.650Z,83272.34
2023-09-30T21:38:22.648Z,83271.00
2023-09-30T21:40:56.311Z,83272.28
2023-09-30T21:43:31.037Z,83264.22
2023-09-30T21:46:05.038Z,83261.59
2023-09-30T21:48:39.689Z,83256.97
2023-09-30T21:51:17.179Z,83261.59
2023-09-30T21:53:50.512Z,83266.78
2023-09-30T21:56:23.870Z,83262.19
2023-09-30T21:58:57.729Z,83256.91
2023-09-30T22:01:34.805Z,83255.53
2023-09-30T22:04:08.299Z,83253.56
2023-09-30T22:06:47.196Z,83255.53
2023-09-30T22:09:22.004Z,83256.78
2023-09-30T22:11:56.727Z,83256.09
2023-09-30T22:14:30.606Z,83266.69
2023-09-30T22:17:05.057Z,83266.00
2023-09-30T22:19:38.321Z,83257.38
2023-09-30T22:22:16.338Z,83263.97
2023-09-30T22:24:49.864Z,83264.63
2023-09-30T22:27:23.765Z,83273.84
2023-09-30T22:30:00.281Z,83273.16
2023-09-30T22:32:35.309Z,83277.19
2023-09-30T22:35:09.897Z,83288.94
2023-09-30T22:37:46.450Z,83283.75
2023-09-30T22:40:20.501Z,83279.03
2023-09-30T22:42:55.020Z,83278.34
2023-09-30T22:45:28.668Z,83291.50
2023-09-30T22:48:02.578Z,83290.22
2023-09-30T22:50:39.497Z,83294.13
2023-09-30T22:53:16.581Z,83288.13
2023-09-30T22:55:50.187Z,83288.84
2023-09-30T22:58:23.891Z,83278.16
2023-09-30T23:00:57.532Z,83277.56
2023-09-30T23:03:31.392Z,83273.56
2023-09-30T23:06:05.867Z,83271.59
2023-09-30T23:08:43.159Z,83277.47
2023-09-30T23:11:20.688Z,83282.75
2023-09-30T23:13:58.439Z,83292.75
2023-09-30T23:16:44.415Z,83295.31
2023-09-30T23:19:25.349Z,83301.19
2023-09-30T23:22:01.536Z,83295.91
2023-09-30T23:24:39.880Z,83307.03
2023-09-30T23:27:15.950Z,83303.03
2023-09-30T23:29:50.449Z,83303.03
2023-09-30T23:32:23.773Z,83316.34
2023-09-30T23:34:56.913Z,83318.31
2023-09-30T23:37:30.641Z,83314.97
2023-09-30T23:40:09.884Z,83328.19
2023-09-30T23:42:45.608Z,83318.31
2023-09-30T23:45:24.994Z,83318.41
2023-09-30T23:48:01.198Z,83319.69
2023-09-30T23:50:36.520Z,83322.91
2023-09-30T23:53:12.126Z,83323.59
2023-09-30T23:55:50.105Z,83325.47
2023-09-30T23:58:24.146Z,83337.41
